Flight Track Log - Related Links

Times and Time Zones

All times are in EDT time to prevent confusion due to time zone crossing. See the UAL5887 flight status page for this flight to view local times or setup timezone preferences in your user account.

Time Position Orientation Groundspeed Altitude Reporting Facility
EDT Latitude Longitude Course Direction KTS MPH feet Rate Location/Type
Thu 11:55:14 AM 42.0394 -87.8033 69° East 210 242 4,700  Level Chicago Center
Thu 11:55:31 AM 42.0500 -87.7667 69° East 258 297 4,900 2,177 Climbing Chicago TRACON
Thu 11:57:18 AM 42.0564 -87.5989 87° East 281 323 9,200 2,393 Climbing Chicago Center
Thu 11:58:19 AM 42.0564 -87.4881 90° East 292 336 11,600 2,146 Climbing Chicago Center
Thu 11:59:21 AM 42.0531 -87.3706 92° East 310 357 13,600 1,548 Climbing Chicago Center
Thu 12:00:23 PM 42.0469 -87.2403 94° East 344 396 14,800 1,258 Climbing Chicago Center
Thu 12:01:25 PM 42.0386 -87.1056 95° East 360 414 16,200 1,463 Climbing Chicago Center
Thu 12:02:26 PM 42.0272 -86.9333 95° East 384 442 17,800 1,561 Climbing Chicago Center
Thu 12:03:28 PM 42.0197 -86.7833 94° East 400 460 19,400 1,500 Climbing Chicago Center
Thu 12:04:30 PM 42.0161 -86.6381 92° East 415 478 20,900 1,707 Climbing Chicago Center
Thu 12:05:31 PM 42.0381 -86.4797 79° East 429 494 22,900 1,902 Climbing Chicago Center
Thu 12:06:33 PM 42.0589 -86.3239 80° East 428 493 24,800 1,016 Climbing Chicago Center
Thu 12:07:35 PM 42.0794 -86.1594 80° East 441 507 25,000 97 Climbing Chicago Center
Thu 12:08:37 PM 42.1069 -85.9575 80° East 481 554 25,000  Level Chicago Center
Thu 12:09:38 PM 42.1294 -85.7728 81° East 502 578 25,000  Level Chicago Center
Thu 12:10:40 PM 42.1528 -85.5831 81° East 516 594 25,000  Level Chicago Center
Thu 12:11:45 PM 42.1814 -85.3642 80° East 518 596 25,000  Level Cleveland Center
Thu 12:12:45 PM 42.2078 -85.1783 79° East 518 596 25,000  Level Cleveland Center
Thu 12:13:45 PM 42.2272 -85.0003 82° East 505 581 25,000  Level Cleveland Center
Thu 12:14:45 PM 42.2458 -84.8389 81° East 466 536 25,000  Level Cleveland Center
Thu 12:15:45 PM 42.2642 -84.6828 81° East 437 503 25,000  Level Cleveland Center
Thu 12:16:45 PM 42.2803 -84.5153 83° East 432 497 25,000 -100 Level Cleveland Center
Thu 12:17:45 PM 42.3006 -84.3481 81° East 445 512 24,800 -500 Descending Cleveland Center
Thu 12:18:45 PM 42.3272 -84.1700 78° East 461 531 24,000 -400 Descending Cleveland Center
Thu 12:19:45 PM 42.3511 -83.9969 79° East 467 537 24,000  Level Cleveland Center
Thu 12:20:45 PM 42.3869 -83.8386 73° East 461 531 24,000  Level Cleveland Center
Thu 12:21:45 PM 42.4431 -83.6925 62° Northeast 442 509 24,000  Level Cleveland Center
Thu 12:22:45 PM 42.4806 -83.5422 71° East 429 494 24,000  Level Cleveland Center
Thu 12:23:45 PM 42.5156 -83.3917 72° East 419 482 24,000  Level Cleveland Center
Thu 12:24:45 PM 42.5525 -83.2411 72° East 419 482 24,000 250 Level Cleveland Center
Thu 12:25:45 PM 42.5892 -83.0903 72° East 419 482 24,500 500 Climbing Cleveland Center
Thu 12:26:45 PM 42.6425 -82.9372 65° Northeast 429 494 25,000 250 Climbing Cleveland Center
Thu 12:27:45 PM 42.6997 -82.7811 63° Northeast 444 511 25,000  Level Cleveland Center
Thu 12:28:45 PM 42.7589 -82.6219 63° Northeast 454 522 25,000  Level Cleveland Center
Thu 12:29:45 PM 42.8200 -82.4628 62° Northeast 466 536 25,000  Level Cleveland Center
Thu 12:30:45 PM 42.8789 -82.3031 63° Northeast 466 536 25,000  Level Cleveland Center
Thu 12:31:41 PM 42.9333 -82.1333 66° East 470 541 25,000  Level Toronto Center
Thu 12:32:41 PM 42.9833 -81.9500 69° East 470 541 25,000  Level Toronto Center
Thu 12:33:41 PM 43.0333 -81.8000 65° Northeast 470 541 25,000  Level Toronto Center
Thu 12:34:41 PM 43.0833 -81.6500 65° Northeast 470 541 25,000  Level Toronto Center
Thu 12:35:41 PM 43.1167 -81.4833 75° East 460 529 25,000  Level Toronto Center
Thu 12:36:41 PM 43.1667 -81.3000 69° East 460 529 25,000  Level Toronto Center
Thu 12:37:41 PM 43.2167 -81.1500 65° Northeast 460 529 25,000  Level Toronto Center
Thu 12:38:41 PM 43.2667 -80.9667 69° East 470 541 25,000  Level Toronto Center
Thu 12:39:41 PM 43.3167 -80.8000 68° East 470 541 25,000  Level Toronto Center
Thu 12:40:41 PM 43.3667 -80.6500 65° Northeast 470 541 25,000  Level Toronto Center
Thu 12:41:41 PM 43.4167 -80.4833 68° East 470 541 25,000  Level Toronto Center
Thu 12:42:41 PM 43.4667 -80.3000 69° East 460 529 25,000  Level Toronto Center
Thu 12:43:41 PM 43.5000 -80.1333 75° East 460 529 25,000  Level Toronto Center
Thu 12:44:41 PM 43.5500 -79.9833 65° Northeast 460 529 25,000  Level Toronto Center
Thu 12:45:41 PM 43.6000 -79.8167 67° East 450 518 25,000  Level Toronto Center
Thu 12:46:41 PM 43.6333 -79.6500 74° East 440 506 25,000 -150 Level Toronto Center
Thu 12:47:41 PM 43.6833 -79.5167 63° Northeast 440 506 24,700 -500 Descending Toronto Center
Thu 12:48:41 PM 43.7333 -79.3500 67° East 430 495 24,000 -350 Descending Toronto Center
Thu 12:49:41 PM 43.7667 -79.2000 73° East 430 495 24,000  Level Toronto Center
Thu 12:50:41 PM 43.8167 -79.0333 67° East 430 495 24,000  Level Toronto Center
Thu 12:51:41 PM 43.8667 -78.9000 62° Northeast 440 506 24,000  Level Toronto Center
Thu 12:52:41 PM 43.9000 -78.7333 74° East 450 518 24,000  Level Toronto Center
Thu 12:53:41 PM 43.9667 -78.5500 63° Northeast 460 529 24,000  Level Toronto Center
Thu 12:54:41 PM 43.9833 -78.3833 82° East 470 541 24,000  Level Toronto Center
Thu 12:55:41 PM 44.0500 -78.2167 61° Northeast 470 541 24,000  Level Toronto Center
Thu 12:56:41 PM 44.1167 -78.0833 55° Northeast 460 529 24,000  Level Toronto Center
Thu 12:57:41 PM 44.1833 -77.9167 61° Northeast 460 529 24,000  Level Toronto Center
Thu 12:58:41 PM 44.2500 -77.7667 58° Northeast 460 529 24,000  Level Toronto Center
Thu 12:59:41 PM 44.3167 -77.6333 55° Northeast 460 529 24,000  Level Toronto Center
Thu 01:00:41 PM 44.4000 -77.4667 55° Northeast 460 529 24,000  Level Toronto Center
Thu 01:01:41 PM 44.4500 -77.3167 65° Northeast 460 529 24,000 -54 Level Toronto Center
Thu 01:02:32 PM 44.5167 -77.2167 47° Northeast 460 529 23,900 -1,027 Descending Montreal Center
Thu 01:03:32 PM 44.5833 -77.0667 58° Northeast 450 518 22,100 -2,300 Descending Montreal Center
Thu 01:04:32 PM 44.6500 -76.9167 58° Northeast 450 518 19,300 -2,550 Descending Montreal Center
Thu 01:05:32 PM 44.7333 -76.8000 45° Northeast 450 518 17,000 -2,550 Descending Montreal Center
Thu 01:06:32 PM 44.7833 -76.6500 65° Northeast 410 472 14,200 -2,800 Descending Montreal Center
Thu 01:07:32 PM 44.8500 -76.5333 51° Northeast 380 437 11,400 -2,140 Descending Montreal Center
Thu 01:08:41 PM 44.9167 -76.3833 58° Northeast 340 391 9,600 -1,500 Descending Toronto Center
Thu 01:09:32 PM 44.9500 -76.3500 35° Northeast 290 334 8,400 -1,081 Descending Montreal Center
Thu 01:10:32 PM 45.0000 -76.2500 55° Northeast 270 311 7,600 -950 Descending Montreal Center
Thu 01:11:32 PM 45.0500 -76.1833 43° Northeast 260 299 6,500 -1,050 Descending Montreal Center
Thu 01:12:32 PM 45.0833 -76.1167 55° Northeast 250 288 5,500 -950 Descending Montreal Center
Thu 01:13:32 PM 45.1167 -76.0167 65° Northeast 240 276 4,600 -1,000 Descending Montreal Center
Thu 01:14:32 PM 45.1667 -75.9500 43° Northeast 230 265 3,500 -800 Descending Montreal Center
Thu 01:15:32 PM 45.2000 -75.9000 47° Northeast 220 253 3,000 -250 Descending Montreal Center
Thu 01:16:32 PM 45.2333 -75.8333 55° Northeast 190 219 3,000 -500 Level Montreal Center
Thu 01:17:32 PM 45.2500 -75.7500 74° East 180 207 2,000 -850 Descending Montreal Center
Thu 01:18:32 PM 45.2667 -75.7000 65° Northeast 140 161 1,300 -750 Descending Montreal Center
Thu 01:19:32 PM 45.3000 -75.6833 19° North 130 150 500 -800 Descending Montreal Center

Login

Don't have an account? Register now (free) for customized features, flight alerts, and more!